createdAt,value
2018-12-27T00:02:22.370Z,96765.52
2018-12-27T00:05:12.464Z,96759.25
2018-12-27T00:08:02.974Z,96756.08
2018-12-27T00:10:53.194Z,96763.78
2018-12-27T00:13:43.006Z,96762.47
2018-12-27T00:16:32.989Z,96762.47
2018-12-27T00:19:22.938Z,96764.34
2018-12-27T00:22:12.817Z,96769.13
2018-12-27T00:25:02.644Z,96765.63
2018-12-27T00:27:52.505Z,96764.75
2018-12-27T00:30:42.174Z,96767.02
2018-12-27T00:33:32.268Z,96762.55
2018-12-27T00:36:22.731Z,96764.52
2018-12-27T00:39:13.331Z,96766.12
2018-12-27T00:42:03.566Z,96760.89
2018-12-27T00:44:53.754Z,96763.88
2018-12-27T00:47:44.252Z,96772.00
2018-12-27T00:50:34.546Z,96773.87
2018-12-27T00:53:24.755Z,96773.87
2018-12-27T00:56:15.608Z,96774.25
2018-12-27T00:59:05.152Z,96766.07
2018-12-27T01:01:55.472Z,96766.03
2018-12-27T01:05:04.657Z,96772.11
2018-12-27T01:07:54.690Z,96775.56
2018-12-27T01:10:44.781Z,96771.14
2018-12-27T01:13:35.253Z,96768.75
2018-12-27T01:16:25.457Z,96761.29
2018-12-27T01:19:15.283Z,96766.52
2018-12-27T01:22:05.619Z,96770.86
2018-12-27T01:24:55.917Z,96767.58
2018-12-27T01:27:46.438Z,96770.26
2018-12-27T01:30:36.970Z,96773.84
2018-12-27T01:33:26.878Z,96768.91
2018-12-27T01:36:16.973Z,96758.88
2018-12-27T01:39:07.387Z,96764.45
2018-12-27T01:41:57.526Z,96759.15
2018-12-27T01:44:47.783Z,96754.44
2018-12-27T01:47:38.216Z,96755.03
2018-12-27T01:50:28.053Z,96755.31
2018-12-27T01:53:18.993Z,96746.97
2018-12-27T01:56:09.014Z,96741.44
2018-12-27T01:58:59.144Z,96752.47
2018-12-27T02:01:48.922Z,96747.56
2018-12-27T02:04:39.090Z,96747.22
2018-12-27T02:07:28.920Z,96742.59
2018-12-27T02:10:18.911Z,96731.82
2018-12-27T02:13:08.850Z,96734.84
2018-12-27T02:15:58.879Z,96735.42
2018-12-27T02:18:49.376Z,96734.25
2018-12-27T02:21:45.087Z,96726.47
2018-12-27T02:24:35.234Z,96728.67
2018-12-27T02:27:25.925Z,96720.77
2018-12-27T02:30:16.400Z,96720.36
2018-12-27T02:33:06.523Z,96709.13
2018-12-27T02:35:58.665Z,96704.48
2018-12-27T02:38:48.873Z,96702.06
2018-12-27T02:41:39.083Z,96696.52
2018-12-27T02:44:29.204Z,96694.30
2018-12-27T02:47:19.487Z,96695.11
2018-12-27T02:50:09.686Z,96687.33
2018-12-27T02:53:00.111Z,96677.55
2018-12-27T02:55:50.090Z,96679.98
2018-12-27T02:58:40.649Z,96678.67
2018-12-27T03:01:31.168Z,96672.80
2018-12-27T03:04:21.337Z,96665.73
2018-12-27T03:07:11.582Z,96667.01
2018-12-27T03:10:02.099Z,96667.09
2018-12-27T03:12:52.338Z,96659.77
2018-12-27T03:15:42.793Z,96653.05
2018-12-27T03:18:32.541Z,96651.34
2018-12-27T03:21:23.227Z,96647.02
2018-12-27T03:24:13.288Z,96644.58
2018-12-27T03:27:03.465Z,96633.81
2018-12-27T03:29:53.422Z,96638.57
2018-12-27T03:32:43.629Z,96630.41
2018-12-27T03:35:34.159Z,96626.16
2018-12-27T03:38:23.821Z,96624.02
2018-12-27T03:41:13.669Z,96630.73
2018-12-27T03:44:03.873Z,96626.78
2018-12-27T03:46:54.017Z,96625.17
2018-12-27T03:49:44.031Z,96628.79
2018-12-27T03:52:34.390Z,96624.09
2018-12-27T03:55:25.169Z,96624.93
2018-12-27T03:58:15.233Z,96609.09
2018-12-27T04:01:04.815Z,96603.38
2018-12-27T04:04:01.435Z,96605.36
2018-12-27T04:06:46.370Z,96608.38
2018-12-27T04:09:36.132Z,96598.05
2018-12-27T04:12:26.142Z,96599.83
2018-12-27T04:15:16.235Z,96598.44
2018-12-27T04:18:06.502Z,96601.34
2018-12-27T04:20:58.228Z,96602.33
2018-12-27T04:23:48.990Z,96597.61
2018-12-27T04:26:38.717Z,96602.25
2018-12-27T04:29:28.590Z,96595.98
2018-12-27T04:32:18.541Z,96593.97
2018-12-27T04:35:08.098Z,96598.14
2018-12-27T04:37:58.162Z,96602.23
2018-12-27T04:40:48.073Z,96605.25
2018-12-27T04:43:38.675Z,96606.18
2018-12-27T04:46:28.703Z,96605.91
2018-12-27T04:49:18.592Z,96608.00
2018-12-27T04:52:08.054Z,96608.39
2018-12-27T04:54:58.207Z,96606.18
2018-12-27T04:57:47.706Z,96607.58
2018-12-27T05:00:37.500Z,96604.22
2018-12-27T05:03:27.311Z,96608.39
2018-12-27T05:06:17.630Z,96613.15
2018-12-27T05:09:08.054Z,96618.33
2018-12-27T05:11:58.391Z,96622.55
2018-12-27T05:14:47.800Z,96620.76
2018-12-27T05:17:38.164Z,96622.03
2018-12-27T05:20:28.241Z,96625.91
2018-12-27T05:23:18.470Z,96618.72
2018-12-27T05:26:08.304Z,96622.67
2018-12-27T05:28:58.235Z,96620.70
2018-12-27T05:31:48.422Z,96621.11
2018-12-27T05:34:38.761Z,96625.54
2018-12-27T05:37:28.994Z,96632.95
2018-12-27T05:40:18.707Z,96636.09
2018-12-27T05:43:09.282Z,96633.78
2018-12-27T05:45:59.948Z,96640.83
2018-12-27T05:48:50.063Z,96630.79
2018-12-27T05:51:40.269Z,96631.80
2018-12-27T05:54:30.064Z,96630.10
2018-12-27T05:57:20.024Z,96636.22
2018-12-27T06:00:10.137Z,96637.53
2018-12-27T06:03:00.613Z,96636.60
2018-12-27T06:05:50.650Z,96635.55
2018-12-27T06:08:40.342Z,96635.55
2018-12-27T06:11:30.583Z,96631.80
2018-12-27T06:14:20.760Z,96628.36
2018-12-27T06:17:11.036Z,96627.51
2018-12-27T06:20:01.549Z,96620.23
2018-12-27T06:22:51.790Z,96627.55
2018-12-27T06:25:41.793Z,96630.22
2018-12-27T06:28:32.562Z,96621.41
2018-12-27T06:31:22.373Z,96625.20
2018-12-27T06:34:12.581Z,96622.79
2018-12-27T06:37:02.501Z,96613.69
2018-12-27T06:39:52.672Z,96616.86
2018-12-27T06:42:42.433Z,96619.06
2018-12-27T06:45:33.091Z,96622.72
2018-12-27T06:48:23.449Z,96623.58
2018-12-27T06:51:13.489Z,96625.51
2018-12-27T06:54:03.725Z,96623.08
2018-12-27T06:56:54.060Z,96627.84
2018-12-27T06:59:44.266Z,96634.06
2018-12-27T07:02:34.713Z,96633.16
2018-12-27T07:05:25.047Z,96634.94
2018-12-27T07:08:15.157Z,96625.44
2018-12-27T07:11:05.338Z,96627.67
2018-12-27T07:13:55.639Z,96626.39
2018-12-27T07:16:45.869Z,96624.31
2018-12-27T07:19:36.117Z,96622.22
2018-12-27T07:22:26.831Z,96620.78
2018-12-27T07:25:16.703Z,96628.14
2018-12-27T07:28:06.508Z,96623.50
2018-12-27T07:30:56.695Z,96624.08
2018-12-27T07:33:46.667Z,96623.00
2018-12-27T07:36:36.662Z,96620.23
2018-12-27T07:39:26.689Z,96625.25
2018-12-27T07:42:16.863Z,96622.08
2018-12-27T07:45:07.173Z,96628.62
2018-12-27T07:47:56.905Z,96626.30
2018-12-27T07:50:46.864Z,96630.34
2018-12-27T07:53:37.161Z,96633.84
2018-12-27T07:56:26.885Z,96631.47
2018-12-27T07:59:16.903Z,96624.68
2018-12-27T08:02:07.319Z,96632.46
2018-12-27T08:05:03.690Z,96629.33
2018-12-27T08:07:48.873Z,96621.67
2018-12-27T08:10:41.066Z,96624.23
2018-12-27T08:13:30.994Z,96626.63
2018-12-27T08:16:26.315Z,96624.30
2018-12-27T08:19:15.930Z,96619.47
2018-12-27T08:22:06.497Z,96614.09
2018-12-27T08:24:56.592Z,96613.64
2018-12-27T08:27:47.280Z,96617.48
2018-12-27T08:30:37.392Z,96613.96
2018-12-27T08:33:28.007Z,96611.66
2018-12-27T08:36:18.130Z,96606.58
2018-12-27T08:39:08.508Z,96606.72
2018-12-27T08:41:58.208Z,96604.88
2018-12-27T08:44:48.454Z,96605.72
2018-12-27T08:47:38.660Z,96594.75
2018-12-27T08:50:28.568Z,96595.00
2018-12-27T08:53:18.805Z,96599.62
2018-12-27T08:56:08.885Z,96580.66
2018-12-27T08:58:58.691Z,96580.66
2018-12-27T09:01:48.648Z,96577.07
2018-12-27T09:04:38.579Z,96582.19
2018-12-27T09:07:28.242Z,96586.53
2018-12-27T09:10:18.203Z,96577.91
2018-12-27T09:13:08.405Z,96587.75
2018-12-27T09:15:58.698Z,96591.27
2018-12-27T09:18:48.155Z,96587.36
2018-12-27T09:21:38.363Z,96587.36
2018-12-27T09:24:28.618Z,96581.11
2018-12-27T09:27:19.189Z,96576.04
2018-12-27T09:30:09.347Z,96573.98
2018-12-27T09:32:59.212Z,96567.93
2018-12-27T09:35:49.153Z,96572.53
2018-12-27T09:38:39.477Z,96569.95
2018-12-27T09:41:29.905Z,96565.34
2018-12-27T09:44:19.857Z,96563.86
2018-12-27T09:47:09.779Z,96565.23
2018-12-27T09:49:59.909Z,96553.34
2018-12-27T09:52:50.004Z,96543.23
2018-12-27T09:55:40.379Z,96545.16
2018-12-27T09:58:30.591Z,96545.38
2018-12-27T10:01:21.160Z,96542.61
2018-12-27T10:04:11.207Z,96541.17
2018-12-27T10:07:01.479Z,96537.94
2018-12-27T10:09:51.974Z,96530.86
2018-12-27T10:12:41.965Z,96522.55
2018-12-27T10:15:31.963Z,96521.88
2018-12-27T10:18:22.057Z,96523.24
2018-12-27T10:21:12.037Z,96521.89
2018-12-27T10:24:02.222Z,96520.98
2018-12-27T10:26:52.316Z,96518.48
2018-12-27T10:29:42.267Z,96522.16
2018-12-27T10:32:32.634Z,96514.25
2018-12-27T10:35:22.710Z,96513.94
2018-12-27T10:38:13.024Z,96513.43
2018-12-27T10:41:03.268Z,96508.14
2018-12-27T10:43:53.346Z,96499.39
2018-12-27T10:46:43.652Z,96501.27
2018-12-27T10:49:33.664Z,96500.79
2018-12-27T10:52:23.833Z,96497.09
2018-12-27T10:55:14.008Z,96487.45
2018-12-27T10:58:04.649Z,96488.28
2018-12-27T11:00:55.040Z,96484.08
2018-12-27T11:03:44.966Z,96478.88
2018-12-27T11:06:35.263Z,96462.83
2018-12-27T11:09:25.100Z,96458.08
2018-12-27T11:12:15.050Z,96447.23
2018-12-27T11:15:05.584Z,96441.89
2018-12-27T11:17:55.603Z,96430.64
2018-12-27T11:20:45.737Z,96428.13
2018-12-27T11:23:36.129Z,96420.77
2018-12-27T11:26:26.520Z,96421.50
2018-12-27T11:29:17.190Z,96419.00
2018-12-27T11:32:06.674Z,96418.81
2018-12-27T11:34:56.657Z,96407.91
2018-12-27T11:37:47.198Z,96401.68
2018-12-27T11:40:37.436Z,96400.28
2018-12-27T11:43:27.215Z,96397.78
2018-12-27T11:46:17.494Z,96399.22
2018-12-27T11:49:07.382Z,96391.38
2018-12-27T11:51:57.295Z,96401.78
2018-12-27T11:54:47.152Z,96406.50
2018-12-27T11:57:36.971Z,96401.19
2018-12-27T12:00:26.902Z,96394.77
2018-12-27T12:03:17.046Z,96399.16
2018-12-27T12:06:06.536Z,96390.05
2018-12-27T12:08:57.114Z,96384.20
2018-12-27T12:11:46.743Z,96380.39
2018-12-27T12:14:37.284Z,96384.20
2018-12-27T12:17:27.855Z,96380.78
2018-12-27T12:20:17.608Z,96371.64
2018-12-27T12:23:07.752Z,96378.08
2018-12-27T12:25:58.022Z,96380.91
2018-12-27T12:28:47.746Z,96379.87
2018-12-27T12:31:37.840Z,96384.12
2018-12-27T12:34:27.638Z,96380.71
2018-12-27T12:37:19.447Z,96379.45
2018-12-27T12:40:09.649Z,96387.22
2018-12-27T12:43:00.307Z,96368.23
2018-12-27T12:45:50.199Z,96376.62
2018-12-27T12:48:40.889Z,96373.33
2018-12-27T12:51:30.389Z,96369.55
2018-12-27T12:54:20.096Z,96366.08
2018-12-27T12:57:10.196Z,96356.78
2018-12-27T17:31:20.505Z,96331.56
2018-12-27T17:34:10.159Z,96328.15
2018-12-27T17:36:59.911Z,96336.61
2018-12-27T17:39:49.719Z,96336.09
2018-12-27T17:42:39.678Z,96340.73
2018-12-27T17:45:29.632Z,96342.83
2018-12-27T17:48:19.632Z,96341.61
2018-12-27T17:51:09.374Z,96345.46
2018-12-27T17:53:59.237Z,96345.32
2018-12-27T17:56:49.411Z,96350.26
2018-12-27T17:59:39.236Z,96348.00
2018-12-27T18:02:29.653Z,96353.01
2018-12-27T18:05:19.638Z,96348.76
2018-12-27T18:08:09.779Z,96348.81
2018-12-27T18:10:59.711Z,96351.83
2018-12-27T18:13:49.889Z,96351.92
2018-12-27T18:16:40.018Z,96357.11
2018-12-27T18:19:29.993Z,96356.67
2018-12-27T18:22:19.938Z,96354.09
2018-12-27T18:25:10.003Z,96347.31
2018-12-27T18:28:00.430Z,96342.11
2018-12-27T18:30:52.866Z,96343.89
2018-12-27T18:33:43.353Z,96343.70
2018-12-27T18:36:33.114Z,96345.89
2018-12-27T18:39:23.180Z,96339.45
2018-12-27T18:42:12.985Z,96342.66
2018-12-27T18:45:03.095Z,96337.09
2018-12-27T18:47:53.611Z,96338.05
2018-12-27T18:50:43.856Z,96338.95
2018-12-27T18:53:33.964Z,96339.83
2018-12-27T18:56:24.422Z,96337.52
2018-12-27T18:59:14.888Z,96339.13
2018-12-27T19:02:05.675Z,96339.49
2018-12-27T19:04:56.323Z,96336.92
2018-12-27T19:07:46.690Z,96338.16
2018-12-27T19:10:37.303Z,96344.17
2018-12-27T19:13:27.163Z,96339.80
2018-12-27T19:16:17.430Z,96347.49
2018-12-27T19:19:07.767Z,96341.45
2018-12-27T19:22:06.800Z,96341.00
2018-12-27T19:24:56.676Z,96344.80
2018-12-27T19:27:47.115Z,96342.69
2018-12-27T19:30:36.992Z,96348.64
2018-12-27T19:33:27.454Z,96354.95
2018-12-27T19:36:17.467Z,96357.02
2018-12-27T19:39:07.873Z,96360.41
2018-12-27T19:41:58.364Z,96360.02
2018-12-27T19:44:48.474Z,96366.89
2018-12-27T19:47:38.691Z,96365.61
2018-12-27T19:50:28.412Z,96366.05
2018-12-27T19:53:18.438Z,96374.57
2018-12-27T19:56:08.401Z,96370.72
2018-12-27T19:58:58.832Z,96372.33
2018-12-27T20:01:49.288Z,96369.73
2018-12-27T20:04:39.702Z,96365.44
2018-12-27T20:07:30.221Z,96368.48
2018-12-27T20:10:20.651Z,96374.52
2018-12-27T20:13:10.887Z,96370.59
2018-12-27T20:16:01.006Z,96372.70
2018-12-27T20:18:51.574Z,96369.81
2018-12-27T20:21:42.143Z,96370.74
2018-12-27T20:24:32.564Z,96368.23
2018-12-27T20:27:23.064Z,96372.08
2018-12-27T20:30:13.716Z,96366.27
2018-12-27T20:33:04.168Z,96372.09
2018-12-27T20:35:54.947Z,96372.63
2018-12-27T20:38:45.139Z,96367.93
2018-12-27T20:41:35.487Z,96376.02
2018-12-27T20:44:25.644Z,96366.72
2018-12-27T20:47:15.356Z,96374.49
2018-12-27T20:50:07.055Z,96381.81
2018-12-27T20:52:57.092Z,96375.24
2018-12-27T20:55:46.896Z,96380.98
2018-12-27T20:58:37.268Z,96383.16
2018-12-27T21:01:27.216Z,96382.42
2018-12-27T21:04:17.757Z,96381.28
2018-12-27T21:07:08.232Z,96380.92
2018-12-27T21:09:59.036Z,96377.43
2018-12-27T21:12:48.495Z,96371.02
2018-12-27T21:15:38.427Z,96371.42
2018-12-27T21:18:28.541Z,96373.91
2018-12-27T21:21:19.126Z,96363.20
2018-12-27T21:24:10.690Z,96367.09
2018-12-27T21:27:01.340Z,96374.58
2018-12-27T21:29:51.734Z,96375.07
2018-12-27T21:32:41.790Z,96367.08
2018-12-27T21:35:32.234Z,96366.44
2018-12-27T21:38:22.458Z,96360.55
2018-12-27T21:41:12.185Z,96358.13
2018-12-27T21:44:02.116Z,96359.88
2018-12-27T21:46:52.078Z,96356.03
2018-12-27T21:49:42.142Z,96346.52
2018-12-27T21:52:32.402Z,96349.08
2018-12-27T21:55:22.530Z,96347.80
2018-12-27T21:58:12.906Z,96344.42
2018-12-27T22:01:03.071Z,96344.88
2018-12-27T22:03:53.715Z,96348.61
2018-12-27T22:06:43.563Z,96349.54
2018-12-27T22:09:34.012Z,96350.05
2018-12-27T22:12:24.490Z,96345.45
2018-12-27T22:15:15.156Z,96343.73
2018-12-27T22:18:04.975Z,96335.67
2018-12-27T22:20:55.435Z,96332.79
2018-12-27T22:23:45.755Z,96332.79
2018-12-27T22:26:35.837Z,96328.41
2018-12-27T22:29:26.501Z,96327.91
2018-12-27T22:32:16.980Z,96330.30
2018-12-27T22:35:07.146Z,96330.75
2018-12-27T22:37:57.411Z,96327.97
2018-12-27T22:40:47.581Z,96333.09
2018-12-27T22:43:37.866Z,96330.83
2018-12-27T22:46:28.508Z,96325.02
2018-12-27T22:49:18.812Z,96325.42
2018-12-27T22:52:09.161Z,96316.98
2018-12-27T22:54:59.642Z,96311.84
2018-12-27T22:57:50.031Z,96308.44
2018-12-27T23:00:41.196Z,96310.19
2018-12-27T23:03:31.714Z,96302.95
2018-12-27T23:06:22.113Z,96311.07
2018-12-27T23:09:12.092Z,96307.61
2018-12-27T23:12:02.510Z,96292.33
2018-12-27T23:14:52.826Z,96290.29
2018-12-27T23:17:43.448Z,96294.06
2018-12-27T23:20:33.961Z,96291.05
2018-12-27T23:29:03.447Z,96293.28
2018-12-27T23:31:54.055Z,96297.45
2018-12-27T23:37:26.690Z,96299.03
2018-12-27T23:40:17.011Z,96301.58
2018-12-27T23:43:07.299Z,96298.11
2018-12-27T23:45:57.453Z,96301.52
2018-12-27T23:48:47.910Z,96295.11
2018-12-27T23:51:38.855Z,96299.33
2018-12-27T23:54:29.010Z,96297.59
2018-12-27T23:57:18.619Z,96304.36
